Latest Weather Observations for Oenpelli Airport

IDD60801

Issued at 9:05 am CST Friday 29 August 2014 (issued every 30 minutes, with the page automatically refreshed every 10 minutes)

About weather observations | Map of weather stations | Latest weather observations for NT | Other Formats
Station Details ID: 014310 Name: OENPELLI AIRPORT Lat: -12.33 Lon: 133.01 Height: 7.5 m
Data from the previous 72 hours. | See also: Recent months for locations in Northern Territory
Date/Time
CST
Temp
°C
App
Temp
°C
Dew
Point
Rel
Hum
%
Delta-T
°C
Wind Press
QNH
hPa
Press
MSL
hPa
Rain
since 9 am
mm
Dir
 
Spd
km/h
Gust
km/h
Spd
kts
Gust
kts
29/09:00am 24.4 23.7 8.4 36 8.5 NNW 2 6 1 3 1015.9 1015.8 0.0
29/08:30am 21.9 22.7 12.5 55 5.3 N 0 0 0 0 1015.8 1015.7 0.0
29/08:00am 18.7 19.7 13.1 70 3.2 CALM 0 0 0 0 1015.7 1015.6 0.0
29/07:30am 15.8 16.4 11.8 77 2.2 CALM 0 0 0 0 1015.4 1015.3 0.0
29/07:00am 13.9 13.9 9.7 76 2.2 CALM 0 0 0 0 1015.1 1015.0 0.0
29/06:30am 14.0 14.2 10.6 80 1.8 CALM 0 0 0 0 1014.8 1014.7 0.0
29/06:00am 14.2 14.3 10.0 76 2.2 N 0 0 0 0 1014.4 1014.3 0.0
29/05:30am 15.1 14.8 8.6 65 3.3 CALM 0 0 0 0 1014.2 1014.1 0.0
29/05:00am 16.5 16.0 7.7 56 4.4 CALM 0 0 0 0 1014.1 1014.0 0.0
29/04:30am 18.4 18.0 8.1 51 5.3 CALM 0 0 0 0 1013.9 1013.8 0.0
29/04:00am 20.4 19.1 7.7 44 6.5 ENE 4 4 2 2 1013.6 1013.5 0.0
29/03:30am 22.3 20.6 8.4 41 7.3 E 7 9 4 5 1013.4 1013.3 0.0
29/03:00am 22.7 21.5 9.5 43 7.1 E 6 9 3 5 1013.3 1013.2 0.0
29/02:30am 23.8 22.8 9.0 39 8.0 E 4 11 2 6 1013.3 1013.2 0.0
29/02:00am 24.5 21.8 8.9 37 8.4 SE 13 24 7 13 1013.3 1013.2 0.0
29/01:30am 24.7 22.4 9.0 37 8.5 ESE 11 19 6 10 1013.4 1013.3 0.0
29/01:00am 24.7 22.2 8.2 35 8.8 ESE 11 20 6 11 1013.7 1013.6 0.0
29/12:30am 25.2 21.9 8.2 34 9.1 ESE 15 22 8 12 1014.1 1014.0 0.0
29/12:00am 25.3 22.7 9.2 36 8.8 ESE 13 19 7 10 1014.3 1014.2 0.0
 
Date/Time
CST
Temp
°C
App
Temp
°C
Dew
Point
Rel
Hum
%
Delta-T
°C
Wind Press
QNH
hPa
Press
MSL
hPa
Rain
since 9 am
mm
Dir
 
Spd
km/h
Gust
km/h
Spd
kts
Gust
kts
28/11:30pm 20.4 20.2 12.9 62 4.2 ESE 6 9 3 5 1014.4 1014.3 0.0
28/11:00pm 19.6 20.4 12.6 64 3.9 CALM 0 0 0 0 1014.3 1014.2 0.0
28/10:30pm 20.6 21.4 12.6 60 4.5 CALM 0 0 0 0 1014.4 1014.3 0.0
28/10:00pm 21.7 22.3 12.0 54 5.4 CALM 0 2 0 1 1014.3 1014.2 0.0
28/09:30pm 21.7 22.1 11.1 51 5.9 CALM 0 2 0 1 1014.2 1014.1 0.0
28/09:00pm 22.2 22.1 9.4 44 6.9 CALM 0 0 0 0 1013.8 1013.7 0.0
28/08:30pm 24.1 23.6 10.7 43 7.4 ENE 4 7 2 4 1013.5 1013.4 0.0
28/08:00pm 25.0 23.6 8.9 36 8.7 NE 6 9 3 5 1013.1 1013.0 0.0
28/07:30pm 26.4 24.1 5.9 27 10.6 NE 7 9 4 5 1012.5 1012.4 0.0
28/07:00pm 27.7 25.3 5.3 24 11.6 ENE 7 9 4 5 1012.0 1011.9 0.0
28/06:30pm 29.6 27.0 4.3 20 13.0 ENE 7 9 4 5 1011.8 1011.7 0.0
28/06:00pm 31.0 28.5 4.7 19 13.7 ENE 7 11 4 6 1011.6 1011.5 0.0
28/05:30pm 32.3 29.1 3.3 16 14.9 E 9 13 5 7 1011.2 1011.1 0.0
28/05:00pm 32.6 29.2 1.7 14 15.4 ENE 9 13 5 7 1011.0 1010.9 0.0
28/04:30pm 33.4 29.1 1.3 13 16.0 E 13 20 7 11 1010.9 1010.8 0.0
28/04:00pm 33.2 29.3 1.1 13 16.0 E 11 20 6 11 1010.8 1010.7 0.0
28/03:30pm 32.8 29.4 1.8 14 15.6 NE 9 15 5 8 1011.1 1011.0 0.0
28/03:00pm 32.8 28.1 0.8 13 15.8 ENE 15 22 8 12 1011.3 1011.2 0.0
28/02:30pm 33.1 29.0 -0.1 12 16.2 ENE 11 19 6 10 1011.4 1011.3 0.0
28/02:00pm 32.4 26.7 -0.6 12 15.9 E 19 32 10 17 1011.7 1011.6 0.0
28/01:30pm 32.3 27.1 0.4 13 15.6 ENE 17 28 9 15 1012.2 1012.1 0.0
28/01:00pm 31.9 25.8 0.1 13 15.4 E 22 33 12 18 1012.8 1012.7 0.0
28/12:30pm 31.6 24.9 -1.2 12 15.5 ESE 24 39 13 21 1013.4 1013.3 0.0
28/12:00pm 31.0 25.1 -0.6 13 15.0 ENE 20 33 11 18 1013.9 1013.8 0.0
28/11:30am 30.9 24.3 -0.7 13 15.0 E 24 37 13 20 1014.3 1014.2 0.0
28/11:00am 30.5 23.2 0.0 14 14.6 E 28 41 15 22 1014.4 1014.3 0.0
28/10:30am 29.6 21.9 0.2 15 14.0 E 30 48 16 26 1014.7 1014.6 0.0
28/10:27am 29.4 22.1 0.1 15 14.0 E 28 48 15 26 1014.7 1014.6 0.0
28/10:00am 28.9 22.1 0.6 16 13.5 E 26 43 14 23 1015.0 1014.9 0.0
28/09:30am 27.6 21.9 0.4 17 12.8 E 20 28 11 15 1015.2 1015.1 0.0
28/09:00am 26.6 21.2 -1.3 16 12.7 ESE 17 30 9 16 1015.2 1015.1 0.0
28/08:30am 25.4 21.3 0.1 19 11.7 ESE 11 22 6 12 1015.2 1015.1 0.0
28/08:00am 22.5 20.8 2.1 26 9.6 CALM 0 0 0 0 1015.2 1015.1 0.0
28/07:30am 20.4 18.8 2.7 31 8.3 CALM 0 0 0 0 1015.1 1015.0 0.0
28/07:00am 21.0 18.0 2.3 29 8.7 SE 7 11 4 6 1015.0 1014.9 0.0
28/06:30am 20.8 17.9 2.6 30 8.5 SE 7 9 4 5 1014.5 1014.4 0.0
28/06:00am 20.4 17.5 2.7 31 8.3 SE 7 11 4 6 1014.3 1014.2 0.0
28/05:30am 19.1 17.3 1.1 30 8.1 CALM 0 2 0 1 1014.2 1014.1 0.0
28/05:00am 21.4 18.3 1.1 26 9.3 SE 7 9 4 5 1013.7 1013.6 0.0
28/04:30am 22.6 18.7 1.0 24 9.9 ESE 11 19 6 10 1013.7 1013.6 0.0
28/04:00am 21.9 18.1 1.6 26 9.4 E 11 15 6 8 1013.6 1013.5 0.0
28/03:30am 22.9 18.7 1.9 25 9.9 ESE 13 22 7 12 1013.4 1013.3 0.0
28/03:00am 22.5 19.9 4.1 30 9.0 ESE 7 15 4 8 1013.5 1013.4 0.0
28/02:30am 19.5 18.1 5.6 40 6.8 NNE 2 6 1 3 1013.5 1013.4 0.0
28/02:00am 22.3 20.2 3.9 30 8.9 ESE 4 7 2 4 1013.7 1013.6 0.0
28/01:30am 23.7 20.4 4.6 29 9.5 E 11 17 6 9 1013.8 1013.7 0.0
28/01:00am 23.6 21.0 6.0 32 9.0 E 9 15 5 8 1014.3 1014.2 0.0
28/12:30am 24.7 21.0 6.4 31 9.4 E 15 22 8 12 1014.6 1014.5 0.0
28/12:00am 25.0 21.7 6.2 30 9.7 E 13 24 7 13 1014.8 1014.7 0.0
 
Date/Time
CST
Temp
°C
App
Temp
°C
Dew
Point
Rel
Hum
%
Delta-T
°C
Wind Press
QNH
hPa
Press
MSL
hPa
Rain
since 9 am
mm
Dir
 
Spd
km/h
Gust
km/h
Spd
kts
Gust
kts
27/11:30pm 26.0 21.4 6.6 29 10.1 ESE 20 32 11 17 1014.8 1014.7 0.0
27/11:00pm 24.6 23.2 9.7 39 8.2 ESE 7 11 4 6 1014.6 1014.5 0.0
27/10:30pm 21.8 22.7 13.9 61 4.6 NE 2 6 1 3 1014.5 1014.4 0.0
27/10:00pm 23.4 23.2 13.6 54 5.7 ENE 7 11 4 6 1014.3 1014.2 0.0
27/09:30pm 24.4 24.2 13.6 51 6.3 ENE 7 9 4 5 1014.1 1014.0 0.0
27/09:00pm 25.0 24.5 13.9 50 6.5 ENE 9 13 5 7 1013.8 1013.7 0.0
27/08:30pm 25.0 24.2 12.9 47 7.0 ENE 9 13 5 7 1013.4 1013.3 0.0
27/08:00pm 24.7 23.9 11.6 44 7.4 ENE 7 13 4 7 1013.1 1013.0 0.0
27/07:30pm 25.9 24.2 9.7 36 8.9 ENE 9 11 5 6 1012.6 1012.5 0.0
27/07:00pm 27.9 25.9 4.2 22 12.0 E 4 6 2 3 1011.7 1011.6 0.0
27/06:30pm 30.3 27.0 2.5 17 13.9 E 9 20 5 11 1011.2 1011.1 0.0
27/06:00pm 31.9 28.0 1.1 14 15.2 E 11 15 6 8 1010.9 1010.8 0.0
27/05:30pm 32.7 28.4 0.7 13 15.8 ESE 13 19 7 10 1010.7 1010.6 0.0
27/05:00pm 33.1 29.4 -0.1 12 16.2 ENE 9 17 5 9 1010.5 1010.4 0.0
27/04:30pm 33.4 28.3 -2.3 10 16.8 SE 15 22 8 12 1010.5 1010.4 0.0
27/04:00pm 33.5 28.3 0.2 12 16.3 E 17 24 9 13 1010.3 1010.2 0.0
27/03:30pm 33.9 28.4 -2.0 10 17.0 E 17 28 9 15 1010.5 1010.4 0.0
27/03:00pm 33.7 27.8 -2.1 10 16.9 ESE 19 32 10 17 1010.7 1010.6 0.0
27/02:30pm 33.4 27.3 -2.3 10 16.8 ESE 20 33 11 18 1011.1 1011.0 0.0
27/02:00pm 33.6 27.9 -0.9 11 16.6 E 19 32 10 17 1011.4 1011.3 0.0
27/01:30pm 33.5 27.0 -2.3 10 16.9 E 22 33 12 18 1011.8 1011.7 0.0
27/01:00pm 33.1 27.3 -0.1 12 16.2 E 20 30 11 16 1012.4 1012.3 0.0
27/12:30pm 32.0 26.2 0.2 13 15.4 E 20 32 11 17 1013.0 1012.9 0.0
27/12:00pm 31.9 25.4 0.1 13 15.4 E 24 37 13 20 1013.3 1013.2 0.0
27/11:30am 31.1 24.3 0.5 14 14.8 ESE 26 39 14 21 1013.8 1013.7 0.0
27/11:00am 30.3 23.1 0.8 15 14.3 E 28 44 15 24 1014.2 1014.1 0.0
27/10:30am 29.8 21.8 0.4 15 14.1 ESE 32 48 17 26 1014.5 1014.4 0.0
27/10:00am 29.3 22.9 5.4 22 12.5 E 28 43 15 23 1014.8 1014.7 0.0
27/09:31am 28.1 21.5 6.2 25 11.5 E 30 50 16 27 1014.7 1014.6 0.0
27/09:30am 28.1 22.0 6.8 26 11.3 E 28 46 15 25 1014.7 1014.6 0.0
27/09:28am 27.8 21.6 6.0 25 11.4 E 28 46 15 25 1014.7 1014.6 0.0
27/09:00am 27.4 23.5 7.3 28 10.7 E 17 28 9 15 1014.7 1014.6 0.0
27/08:30am 25.8 24.3 10.4 38 8.6 E 9 17 5 9 1014.6 1014.5 0.0
27/08:00am 22.1 22.9 12.4 54 5.5 CALM 0 4 0 2 1014.6 1014.5 0.0
27/07:30am 18.4 18.9 11.7 65 3.7 CALM 0 0 0 0 1014.5 1014.4 0.0
27/07:00am 17.3 17.7 11.1 67 3.3 CALM 0 0 0 0 1014.2 1014.1 0.0
27/06:30am 19.6 19.7 11.4 59 4.5 SE 2 4 1 2 1013.9 1013.8 0.0
27/06:00am 21.5 20.4 12.1 55 5.3 E 9 11 5 6 1013.6 1013.5 0.0
27/05:30am 21.7 20.7 12.3 55 5.3 E 9 17 5 9 1013.2 1013.1 0.0
27/05:00am 22.3 20.9 12.3 53 5.7 ESE 11 17 6 9 1012.8 1012.7 0.0
27/04:30am 21.8 20.8 12.4 55 5.3 E 9 15 5 8 1012.8 1012.7 0.0
27/04:00am 17.6 17.1 9.5 59 4.2 E 2 6 1 3 1012.7 1012.6 0.0
27/03:30am 20.0 18.5 8.4 47 6.0 ESE 6 11 3 6 1012.7 1012.6 0.0
27/03:00am 22.7 20.7 8.8 41 7.4 ESE 9 13 5 7 1012.7 1012.6 0.0
27/02:30am 22.9 21.1 7.8 38 7.9 ESE 7 9 4 5 1013.0 1012.9 0.0
27/02:00am 21.9 20.5 9.4 45 6.7 E 7 13 4 7 1013.5 1013.4 0.0
27/01:30am 18.9 18.8 10.7 59 4.4 NNW 2 6 1 3 1013.6 1013.5 0.0
27/01:00am 19.6 19.6 11.1 58 4.6 NW 2 6 1 3 1013.7 1013.6 0.0
27/12:30am 19.6 20.0 11.1 58 4.6 CALM 0 2 0 1 1013.8 1013.7 0.0
27/12:00am 20.5 19.6 11.2 55 5.1 NW 7 7 4 4 1013.9 1013.8 0.0
 
Date/Time
CST
Temp
°C
App
Temp
°C
Dew
Point
Rel
Hum
%
Delta-T
°C
Wind Press
QNH
hPa
Press
MSL
hPa
Rain
since 9 am
mm
Dir
 
Spd
km/h
Gust
km/h
Spd
kts
Gust
kts
26/11:30pm 22.4 22.1 11.5 50 6.1 ENE 4 15 2 8 1014.0 1013.9 0.0
26/11:00pm 20.8 21.0 11.7 56 5.1 ESE 2 7 1 4 1014.0 1013.9 0.0
26/10:30pm 20.9 20.5 11.0 53 5.4 ENE 4 4 2 2 1013.8 1013.7 0.0
26/10:00pm 21.6 21.8 10.7 50 6.0 CALM 0 0 0 0 1013.5 1013.4 0.0
26/09:30pm 22.6 22.6 9.7 44 7.0 CALM 0 4 0 2 1013.2 1013.1 0.0
26/09:00pm 25.5 24.6 11.3 41 8.0 N 7 11 4 6 1012.8 1012.7 0.0
26/08:30pm 23.8 21.9 7.4 35 8.6 NNW 7 17 4 9 1012.3 1012.2 0.0
26/08:00pm 24.5 23.5 5.8 30 9.5 CALM 0 0 0 0 1011.9 1011.8 0.0
26/07:30pm 26.1 24.6 5.1 26 10.7 ESE 2 4 1 2 1011.4 1011.3 0.0
26/07:00pm 28.4 26.4 4.6 22 12.2 ESE 4 6 2 3 1011.1 1011.0 0.0
26/06:30pm 30.5 28.0 3.5 18 13.7 ESE 6 7 3 4 1010.7 1010.6 0.0
26/06:00pm 31.9 29.1 3.0 16 14.7 SE 7 17 4 9 1010.4 1010.3 0.0
26/05:30pm 32.4 30.3 5.8 19 14.2 SSE 6 11 3 6 1010.3 1010.2 0.0
26/05:00pm 33.0 30.0 2.0 14 15.6 SSE 7 15 4 8 1010.3 1010.2 0.0
26/04:30pm 33.4 30.6 3.3 15 15.5 NE 7 13 4 7 1010.3 1010.2 0.0
26/04:00pm 33.1 29.0 2.1 14 15.7 ENE 13 20 7 11 1010.5 1010.4 0.0
26/03:30pm 33.3 29.6 2.2 14 15.8 ENE 11 19 6 10 1010.7 1010.6 0.0
26/03:00pm 33.9 29.5 2.7 14 16.0 ENE 15 28 8 15 1011.0 1010.9 0.0
26/02:30pm 32.7 29.1 2.7 15 15.3 ENE 11 22 6 12 1011.3 1011.2 0.0
26/02:00pm 32.8 28.0 2.8 15 15.3 E 17 28 9 15 1011.7 1011.6 0.0
26/01:30pm 32.4 28.0 2.5 15 15.1 ESE 15 24 8 13 1012.3 1012.2 0.0
26/01:00pm 32.4 27.2 2.5 15 15.1 ENE 19 28 10 15 1012.8 1012.7 0.0
26/12:30pm 31.7 26.9 2.8 16 14.6 E 17 24 9 13 1013.4 1013.3 0.0
26/12:00pm 31.2 25.8 2.4 16 14.4 E 20 32 11 17 1013.9 1013.8 0.0
26/11:30am 30.7 25.4 2.9 17 14.0 ESE 20 37 11 20 1014.3 1014.2 0.0
26/11:00am 30.4 23.9 2.6 17 13.9 ESE 26 37 14 20 1014.7 1014.6 0.0
26/10:30am 29.6 22.4 2.8 18 13.4 ESE 30 43 16 23 1015.1 1015.0 0.0
26/10:00am 28.6 22.9 4.8 22 12.2 SE 24 33 13 18 1015.3 1015.2 0.0
26/09:30am 28.1 24.3 5.6 24 11.7 ESE 15 24 8 13 1015.6 1015.5 0.0

Other Formats:

Comma delimited format used in spreadsheet applications
http://www.bom.gov.au/fwo/IDD60801/IDD60801.94110.axf

JavaScript Object Notation format (JSON) in row-major order
http://www.bom.gov.au/fwo/IDD60801/IDD60801.94110.json